Time;durP1;ratioP1;P1;durP2;ratioP2;P2;SDS_P1;SDS_P2;PMS_P1;PMS_P2;Temp;Humidity;BMP_temperature;BMP_pressure;BME280_temperature;BME280_humidity;BME280_pressure;Samples;Min_cycle;Max_cycle;Signal;HPM_P1;HPM_P2
2021/10/16 00:00:57;;;;;;;0.70;0.70;;;0.60;99.90;;;;;;5031157;28;20669;-69
2021/10/16 00:03:23;;;;;;;0.70;0.70;;;0.60;99.90;;;;;;5012111;28;20597;-69
2021/10/16 00:05:48;;;;;;;0.70;0.70;;;0.60;99.90;;;;;;5030940;28;20210;-69
2021/10/16 00:08:14;;;;;;;0.80;0.80;;;0.60;99.90;;;;;;5029772;28;20297;-69
2021/10/16 00:10:41;;;;;;;0.70;0.70;;;0.60;99.90;;;;;;5012321;28;20596;-69
2021/10/16 00:13:07;;;;;;;0.70;0.70;;;0.60;99.90;;;;;;5029705;28;20206;-69
2021/10/16 00:15:33;;;;;;;0.70;0.70;;;0.50;99.90;;;;;;5031081;28;20214;-68
2021/10/16 00:17:59;;;;;;;0.70;0.70;;;0.50;99.90;;;;;;5012054;28;20206;-68
2021/10/16 00:20:25;;;;;;;0.80;0.80;;;0.50;99.90;;;;;;5013208;28;20213;-69
2021/10/16 00:22:51;;;;;;;0.75;0.75;;;0.50;99.90;;;;;;5031050;28;20209;-69
2021/10/16 00:25:16;;;;;;;0.60;0.60;;;0.40;99.90;;;;;;5028569;28;20739;-69
2021/10/16 00:27:42;;;;;;;0.80;0.80;;;0.30;99.90;;;;;;5011924;28;20279;-70
2021/10/16 00:30:08;;;;;;;0.70;0.70;;;0.30;99.90;;;;;;5029911;28;20195;-70
2021/10/16 00:32:34;;;;;;;0.70;0.70;;;0.30;99.90;;;;;;5029539;28;20194;-70
2021/10/16 00:34:59;;;;;;;0.70;0.70;;;0.30;99.90;;;;;;5013181;28;20209;-70
2021/10/16 00:37:25;;;;;;;0.70;0.70;;;0.30;99.90;;;;;;5029349;28;20203;-69
2021/10/16 00:39:53;;;;;;;1.42;1.35;;;0.40;99.90;;;;;;5029731;28;20202;-70
2021/10/16 00:42:19;;;;;;;2.50;1.05;;;0.30;99.90;;;;;;5029923;28;20207;-69
2021/10/16 00:44:45;;;;;;;0.73;0.73;;;0.30;99.90;;;;;;5016853;28;20209;-69
2021/10/16 00:47:11;;;;;;;0.75;0.75;;;0.30;99.90;;;;;;5034418;28;20281;-69
2021/10/16 00:49:36;;;;;;;0.80;0.80;;;0.20;99.90;;;;;;5033839;28;20191;-69
2021/10/16 00:52:02;;;;;;;0.70;0.70;;;0.20;99.90;;;;;;5034771;28;20198;-70
2021/10/16 00:54:29;;;;;;;0.73;0.73;;;0.20;99.90;;;;;;5034722;28;20657;-69
2021/10/16 00:56:58;;;;;;;0.73;0.73;;;0.20;99.90;;;;;;5034557;28;20680;-69
2021/10/16 00:59:23;;;;;;;2.15;2.05;;;0.20;99.90;;;;;;5032952;28;20679;-69
2021/10/16 01:01:49;;;;;;;0.82;0.82;;;0.20;99.90;;;;;;5034546;28;20251;-66
2021/10/16 01:04:15;;;;;;;0.80;0.80;;;0.20;99.90;;;;;;5034542;22;20230;-72
2021/10/16 01:06:41;;;;;;;0.60;0.60;;;0.20;99.90;;;;;;5023520;28;20256;-73
2021/10/16 01:09:10;;;;;;;0.80;0.80;;;0.10;99.90;;;;;;5032874;28;20198;-73
2021/10/16 01:11:38;;;;;;;0.70;0.70;;;0.10;99.90;;;;;;5024115;28;20278;-70
2021/10/16 01:14:09;;;;;;;0.80;0.80;;;0.10;99.90;;;;;;5011747;28;20610;-71
2021/10/16 01:16:36;;;;;;;0.70;0.70;;;0.00;99.90;;;;;;5024147;28;20549;-71
2021/10/16 01:19:07;;;;;;;0.70;0.70;;;0.00;99.90;;;;;;5027615;28;20256;-72
2021/10/16 01:21:34;;;;;;;0.80;0.80;;;0.00;99.90;;;;;;5033791;28;20572;-72
2021/10/16 01:24:02;;;;;;;0.80;0.80;;;0.10;99.90;;;;;;5033898;28;20241;-72
2021/10/16 01:26:29;;;;;;;0.75;0.75;;;0.10;99.90;;;;;;5031917;28;20273;-73
2021/10/16 01:28:56;;;;;;;0.73;0.73;;;0.20;99.90;;;;;;5032537;28;20202;-73
2021/10/16 01:31:26;;;;;;;0.73;0.73;;;0.20;99.90;;;;;;5020904;28;20209;-73
2021/10/16 01:33:52;;;;;;;0.75;0.75;;;0.20;99.90;;;;;;5027442;28;20205;-73
2021/10/16 01:36:18;;;;;;;0.80;0.80;;;0.20;99.90;;;;;;5032086;28;20202;-73
2021/10/16 01:38:44;;;;;;;0.70;0.70;;;0.20;99.90;;;;;;5034049;28;20198;-72
2021/10/16 01:41:10;;;;;;;0.70;0.70;;;0.20;99.90;;;;;;5029003;28;20209;-72
2021/10/16 01:43:36;;;;;;;0.80;0.80;;;0.20;99.90;;;;;;5032002;28;20210;-72
2021/10/16 01:46:01;;;;;;;0.90;0.90;;;0.20;99.90;;;;;;5032538;28;20583;-72
2021/10/16 01:48:27;;;;;;;0.70;0.70;;;0.20;99.90;;;;;;5032122;28;20205;-72
2021/10/16 01:50:54;;;;;;;0.70;0.70;;;0.20;99.90;;;;;;5034087;28;20291;-72
2021/10/16 01:53:21;;;;;;;0.80;0.80;;;0.20;99.90;;;;;;5033657;28;20320;-73
2021/10/16 01:55:47;;;;;;;0.70;0.70;;;0.20;99.90;;;;;;5032006;28;20226;-72
2021/10/16 01:58:15;;;;;;;0.80;0.80;;;0.20;99.90;;;;;;5034239;28;20210;-72
2021/10/16 02:00:44;;;;;;;0.70;0.70;;;0.20;99.90;;;;;;5013938;28;20272;-72
2021/10/16 02:03:11;;;;;;;0.80;0.80;;;0.20;99.90;;;;;;5033016;28;20210;-71
2021/10/16 02:05:44;;;;;;;0.75;0.75;;;0.20;99.90;;;;;;5015350;28;20227;-71
2021/10/16 02:08:11;;;;;;;0.80;0.80;;;0.20;99.90;;;;;;5013216;28;20201;-71
2021/10/16 02:10:37;;;;;;;0.63;0.63;;;0.10;99.90;;;;;;5012930;28;20670;-72
2021/10/16 02:13:03;;;;;;;0.70;0.70;;;0.10;99.90;;;;;;5012396;28;20244;-72
2021/10/16 02:15:29;;;;;;;0.70;0.70;;;0.10;99.90;;;;;;5011868;28;20562;-72
2021/10/16 02:17:55;;;;;;;0.80;0.80;;;0.10;99.90;;;;;;5012131;28;20211;-72
2021/10/16 02:20:20;;;;;;;0.70;0.70;;;0.10;99.90;;;;;;5005212;28;20575;-72
2021/10/16 02:22:46;;;;;;;0.70;0.70;;;0.00;99.90;;;;;;5008444;28;20209;-72
2021/10/16 02:25:12;;;;;;;0.77;0.77;;;0.00;99.90;;;;;;5014486;28;20222;-72
2021/10/16 02:27:37;;;;;;;0.65;0.65;;;0.00;99.90;;;;;;5011662;28;20206;-72
2021/10/16 02:30:03;;;;;;;0.80;0.80;;;-0.10;99.90;;;;;;5011983;28;20285;-72
2021/10/16 02:32:29;;;;;;;0.70;0.70;;;-0.10;99.90;;;;;;5009094;28;20287;-73
2021/10/16 02:34:55;;;;;;;0.77;0.77;;;-0.20;99.90;;;;;;4985026;28;20352;-71
2021/10/16 02:37:21;;;;;;;0.80;0.80;;;-0.20;99.90;;;;;;4994957;28;20206;-71
2021/10/16 02:39:46;;;;;;;0.70;0.70;;;-0.20;99.90;;;;;;5011994;28;20286;-71
2021/10/16 02:42:12;;;;;;;0.82;0.82;;;-0.30;99.90;;;;;;5011311;28;20709;-71
2021/10/16 02:44:38;;;;;;;0.90;0.90;;;-0.30;99.90;;;;;;5012730;28;20728;-74
2021/10/16 02:47:03;;;;;;;0.80;0.80;;;-0.40;99.90;;;;;;5010746;28;20198;-73
2021/10/16 02:49:29;;;;;;;0.70;0.70;;;-0.40;99.90;;;;;;5012688;28;20297;-74
2021/10/16 02:51:55;;;;;;;0.90;0.90;;;-0.40;99.90;;;;;;4994805;28;20202;-72
2021/10/16 02:54:20;;;;;;;0.70;0.70;;;-0.40;99.90;;;;;;5012338;28;20230;-69
2021/10/16 02:56:46;;;;;;;0.80;0.80;;;-0.50;99.90;;;;;;5011868;28;20741;-71
2021/10/16 02:59:12;;;;;;;0.90;0.90;;;-0.50;99.90;;;;;;5012322;28;20620;-72
2021/10/16 03:01:38;;;;;;;0.70;0.70;;;-0.50;99.90;;;;;;5002413;28;20225;-72
2021/10/16 03:04:04;;;;;;;0.60;0.60;;;-0.60;99.90;;;;;;5011090;28;20654;-73
2021/10/16 03:06:29;;;;;;;0.80;0.80;;;-0.60;99.90;;;;;;5011770;28;20277;-73
2021/10/16 03:08:55;;;;;;;0.80;0.80;;;-0.60;99.90;;;;;;4994420;28;20203;-72
2021/10/16 03:11:21;;;;;;;0.60;0.60;;;-0.70;99.90;;;;;;4994409;28;20213;-72
2021/10/16 03:13:47;;;;;;;0.77;0.77;;;-0.70;99.90;;;;;;5010942;28;20734;-72
2021/10/16 03:16:16;;;;;;;0.85;0.85;;;-0.80;99.90;;;;;;5011436;28;20282;-72
2021/10/16 03:18:42;;;;;;;0.80;0.80;;;-0.80;99.90;;;;;;5010395;28;20599;-72
2021/10/16 03:21:08;;;;;;;0.77;0.77;;;-0.80;99.90;;;;;;5010173;28;20214;-72
2021/10/16 03:23:34;;;;;;;0.90;0.90;;;-0.70;99.90;;;;;;5010464;28;20247;-72
2021/10/16 03:25:59;;;;;;;0.80;0.80;;;-0.70;99.90;;;;;;5010250;28;20219;-72
2021/10/16 03:28:25;;;;;;;0.90;0.90;;;-0.70;99.90;;;;;;5011224;28;20206;-72
2021/10/16 03:30:51;;;;;;;0.85;0.85;;;-0.70;99.90;;;;;;5010177;28;20226;-72
2021/10/16 03:33:17;;;;;;;0.90;0.90;;;-0.70;99.90;;;;;;5011497;28;20248;-72
2021/10/16 03:35:43;;;;;;;0.75;0.75;;;-0.80;99.90;;;;;;4998002;28;20275;-73
2021/10/16 03:38:08;;;;;;;0.70;0.70;;;-0.50;99.90;;;;;;4995498;28;20214;-72
2021/10/16 03:40:34;;;;;;;1.73;1.63;;;-0.50;99.90;;;;;;5011562;28;20210;-73
2021/10/16 03:43:00;;;;;;;0.80;0.80;;;-0.20;99.90;;;;;;5011132;28;20202;-72
2021/10/16 03:45:26;;;;;;;0.70;0.70;;;-0.10;99.90;;;;;;5010596;28;20215;-72
2021/10/16 03:47:51;;;;;;;0.70;0.70;;;0.00;99.90;;;;;;5011444;28;20203;-72
2021/10/16 03:50:17;;;;;;;0.80;0.80;;;0.10;99.90;;;;;;5011810;28;20203;-72
2021/10/16 03:52:43;;;;;;;0.75;0.75;;;0.50;99.90;;;;;;5006347;28;20203;-72
2021/10/16 03:55:09;;;;;;;0.80;0.80;;;0.60;99.90;;;;;;5011021;28;20207;-72
2021/10/16 03:57:35;;;;;;;0.70;0.70;;;0.80;99.90;;;;;;5000026;28;20202;-72
2021/10/16 04:00:01;;;;;;;0.73;0.73;;;1.00;99.90;;;;;;5011381;28;20733;-72
2021/10/16 04:02:27;;;;;;;0.70;0.70;;;1.00;99.90;;;;;;5002301;28;20207;-72
2021/10/16 04:04:54;;;;;;;0.80;0.80;;;1.00;99.90;;;;;;5001643;28;20748;-72
2021/10/16 04:07:19;;;;;;;0.80;0.80;;;1.30;99.90;;;;;;5010115;28;20214;-73
2021/10/16 04:09:45;;;;;;;0.70;0.70;;;1.30;99.90;;;;;;5011260;28;20290;-73
2021/10/16 04:12:11;;;;;;;0.70;0.70;;;1.20;99.90;;;;;;5010059;28;20206;-72
2021/10/16 04:14:37;;;;;;;0.70;0.70;;;1.10;99.90;;;;;;5010769;28;20241;-71
2021/10/16 04:17:03;;;;;;;0.70;0.70;;;1.10;99.90;;;;;;5011914;28;20250;-71
2021/10/16 04:19:29;;;;;;;0.70;0.70;;;1.00;99.90;;;;;;5012986;28;20597;-71
2021/10/16 04:21:55;;;;;;;0.70;0.70;;;1.10;99.90;;;;;;5001290;28;20205;-72
2021/10/16 04:24:21;;;;;;;0.68;0.68;;;1.30;99.90;;;;;;5014377;28;20616;-72
2021/10/16 04:26:47;;;;;;;0.90;0.90;;;1.40;99.90;;;;;;5015041;28;20201;-72
2021/10/16 04:29:13;;;;;;;0.80;0.80;;;1.30;99.90;;;;;;5015939;28;20669;-72
2021/10/16 04:31:39;;;;;;;0.70;0.70;;;1.20;99.90;;;;;;4998657;28;20629;-72
2021/10/16 04:34:06;;;;;;;0.65;0.65;;;1.20;99.90;;;;;;4997024;28;20261;-72
2021/10/16 04:36:32;;;;;;;0.70;0.70;;;1.10;99.90;;;;;;5013357;28;20203;-72
2021/10/16 04:38:58;;;;;;;0.77;0.77;;;1.00;99.90;;;;;;5015326;28;20215;-72
2021/10/16 04:41:24;;;;;;;0.70;0.70;;;0.90;99.90;;;;;;5015069;28;20688;-72
2021/10/16 04:43:50;;;;;;;0.60;0.60;;;0.90;99.90;;;;;;5015569;28;20210;-72
2021/10/16 04:46:17;;;;;;;0.70;0.70;;;0.90;99.90;;;;;;4999303;28;20220;-72
2021/10/16 04:48:44;;;;;;;0.70;0.70;;;0.90;99.90;;;;;;5013456;28;20207;-71
2021/10/16 04:51:13;;;;;;;0.80;0.80;;;0.90;99.90;;;;;;5010123;28;20199;-71
2021/10/16 04:53:39;;;;;;;0.70;0.70;;;0.80;99.90;;;;;;5008373;28;20214;-73
2021/10/16 04:56:05;;;;;;;0.77;0.77;;;0.90;99.90;;;;;;5013422;28;20206;-72
2021/10/16 04:58:32;;;;;;;1.75;1.58;;;0.80;99.90;;;;;;5014712;28;20207;-72
2021/10/16 05:00:57;;;;;;;0.80;0.80;;;0.80;99.90;;;;;;5010740;28;20543;-72
2021/10/16 05:03:23;;;;;;;0.85;0.85;;;0.80;99.90;;;;;;5014442;28;20218;-71
2021/10/16 05:05:49;;;;;;;0.70;0.70;;;0.80;99.90;;;;;;5045159;28;20308;-71
2021/10/16 05:08:15;;;;;;;0.80;0.80;;;0.80;99.90;;;;;;5019058;28;20217;-71
2021/10/16 05:10:41;;;;;;;0.70;0.70;;;0.70;99.90;;;;;;5049678;28;20277;-72
2021/10/16 05:13:06;;;;;;;0.60;0.60;;;0.70;99.90;;;;;;5016812;28;20691;-72
2021/10/16 05:15:32;;;;;;;0.77;0.77;;;0.60;99.90;;;;;;5017629;28;20206;-71
2021/10/16 05:17:58;;;;;;;0.70;0.70;;;0.50;99.90;;;;;;5035551;28;20240;-72
2021/10/16 05:20:23;;;;;;;0.80;0.80;;;0.30;99.90;;;;;;5051494;28;20201;-72
2021/10/16 05:22:49;;;;;;;0.63;0.63;;;0.30;99.90;;;;;;5051857;28;20573;-72
2021/10/16 05:25:16;;;;;;;1.70;1.58;;;0.20;99.90;;;;;;5049858;28;20691;-72
2021/10/16 05:27:42;;;;;;;0.65;0.65;;;0.30;99.90;;;;;;5048589;28;20233;-72
2021/10/16 05:30:09;;;;;;;0.80;0.80;;;0.40;99.90;;;;;;5020660;28;20325;-72
2021/10/16 05:32:35;;;;;;;0.70;0.70;;;0.60;99.90;;;;;;5031739;28;20272;-72
2021/10/16 05:35:01;;;;;;;0.73;0.73;;;0.50;99.90;;;;;;5046628;28;20263;-72
2021/10/16 05:37:26;;;;;;;0.60;0.60;;;0.60;99.90;;;;;;5045101;28;20230;-72
2021/10/16 05:39:52;;;;;;;0.70;0.70;;;0.60;99.90;;;;;;5050107;28;20701;-72
2021/10/16 05:42:18;;;;;;;0.70;0.70;;;0.60;99.90;;;;;;5049268;28;20209;-72
2021/10/16 05:44:44;;;;;;;0.70;0.70;;;0.70;99.90;;;;;;5042359;28;20213;-71
2021/10/16 05:47:09;;;;;;;0.70;0.70;;;0.70;99.90;;;;;;5039717;28;20591;-73
2021/10/16 05:49:35;;;;;;;0.77;0.77;;;0.70;99.90;;;;;;5048377;28;20206;-73
2021/10/16 05:52:01;;;;;;;0.70;0.70;;;0.60;99.90;;;;;;5032026;28;20200;-73
2021/10/16 05:54:27;;;;;;;0.70;0.70;;;0.60;99.90;;;;;;5048326;28;20193;-73
2021/10/16 05:56:52;;;;;;;0.70;0.70;;;0.50;99.90;;;;;;5049611;28;20199;-73
2021/10/16 05:59:18;;;;;;;0.80;0.80;;;0.40;99.90;;;;;;5031674;28;20206;-72
2021/10/16 06:01:44;;;;;;;0.60;0.60;;;0.40;99.90;;;;;;5032359;28;20289;-71
2021/10/16 06:04:10;;;;;;;0.70;0.70;;;0.30;99.90;;;;;;5049960;28;20225;-72
2021/10/16 06:06:35;;;;;;;0.60;0.60;;;0.30;99.90;;;;;;5032276;28;20263;-73
2021/10/16 06:09:01;;;;;;;0.70;0.70;;;0.30;99.90;;;;;;5032529;28;20312;-72
2021/10/16 06:11:27;;;;;;;0.80;0.80;;;0.30;99.90;;;;;;5048211;28;20201;-73
2021/10/16 06:13:53;;;;;;;0.77;0.77;;;0.30;99.90;;;;;;5035276;28;20205;-71
2021/10/16 06:16:18;;;;;;;0.60;0.60;;;0.30;99.90;;;;;;5047866;28;20213;-72
2021/10/16 06:18:45;;;;;;;0.70;0.70;;;0.30;99.90;;;;;;5048208;28;20552;-72
2021/10/16 06:21:11;;;;;;;0.80;0.80;;;0.30;99.90;;;;;;5049330;28;20205;-72
2021/10/16 06:23:37;;;;;;;0.80;0.80;;;0.30;99.90;;;;;;5049151;28;20201;-72
2021/10/16 06:26:03;;;;;;;0.82;0.82;;;0.40;99.90;;;;;;5039357;28;20264;-73
2021/10/16 06:28:29;;;;;;;0.70;0.70;;;0.40;99.90;;;;;;5037634;28;20221;-72
2021/10/16 06:30:55;;;;;;;0.70;0.70;;;0.40;99.90;;;;;;5032930;28;20217;-71
2021/10/16 06:33:22;;;;;;;0.80;0.80;;;0.40;99.90;;;;;;5013058;28;20290;-72
2021/10/16 06:35:48;;;;;;;0.70;0.70;;;0.50;99.90;;;;;;5031036;28;20206;-71
2021/10/16 06:38:14;;;;;;;1.42;1.33;;;0.50;99.90;;;;;;5036998;28;20202;-72
2021/10/16 06:40:40;;;;;;;2.20;2.03;;;0.50;99.90;;;;;;5025454;28;20214;-71
2021/10/16 06:43:06;;;;;;;1.40;1.10;;;0.50;99.90;;;;;;5015485;28;20595;-73
2021/10/16 06:45:32;;;;;;;0.70;0.70;;;0.50;99.90;;;;;;5031747;28;20216;-72
2021/10/16 06:47:57;;;;;;;1.13;1.13;;;0.50;99.90;;;;;;5015882;28;20248;-73
2021/10/16 06:50:23;;;;;;;0.80;0.80;;;0.60;99.90;;;;;;5014353;28;20264;-72
2021/10/16 06:52:49;;;;;;;0.80;0.80;;;0.60;99.90;;;;;;5032367;28;20230;-72
2021/10/16 06:55:14;;;;;;;1.50;1.40;;;0.60;99.90;;;;;;5050938;28;20228;-73
2021/10/16 06:57:40;;;;;;;0.75;0.75;;;0.70;99.90;;;;;;5048607;28;20217;-72
2021/10/16 07:00:06;;;;;;;1.08;1.05;;;0.70;99.90;;;;;;5048133;28;20201;-72
2021/10/16 07:02:33;;;;;;;2.17;1.10;;;0.80;99.90;;;;;;5035079;28;20218;-72
2021/10/16 07:04:58;;;;;;;0.70;0.70;;;0.80;99.90;;;;;;5022227;28;20595;-71
2021/10/16 07:07:25;;;;;;;0.80;0.80;;;0.90;99.90;;;;;;5003364;28;20203;-72
2021/10/16 07:09:50;;;;;;;0.80;0.80;;;1.00;99.90;;;;;;5006555;28;20214;-70
2021/10/16 07:12:16;;;;;;;0.70;0.70;;;1.20;99.90;;;;;;5007152;28;20203;-72
2021/10/16 07:14:42;;;;;;;0.70;0.70;;;1.30;99.90;;;;;;5012186;28;20206;-72
2021/10/16 07:17:07;;;;;;;0.60;0.60;;;1.40;99.90;;;;;;5012077;28;20214;-72
2021/10/16 07:19:33;;;;;;;0.77;0.77;;;1.50;99.90;;;;;;5010759;28;20210;-72
2021/10/16 07:21:59;;;;;;;0.70;0.70;;;1.70;99.90;;;;;;5010993;28;20273;-71
2021/10/16 07:24:25;;;;;;;0.60;0.60;;;1.90;99.90;;;;;;5011903;28;20674;-72
2021/10/16 07:26:53;;;;;;;0.60;0.60;;;2.10;99.90;;;;;;5012812;28;20199;-72
2021/10/16 07:29:22;;;;;;;0.70;0.70;;;2.20;99.90;;;;;;5010092;28;20198;-71
2021/10/16 07:31:51;;;;;;;0.70;0.70;;;2.40;99.90;;;;;;5011858;28;20198;-71
2021/10/16 07:34:18;;;;;;;0.63;0.63;;;2.60;99.90;;;;;;5010670;28;20279;-71
2021/10/16 07:36:45;;;;;;;0.77;0.77;;;2.70;99.90;;;;;;5010880;28;20205;-72
2021/10/16 07:39:12;;;;;;;0.73;0.73;;;2.90;99.90;;;;;;5011451;28;20681;-72
2021/10/16 07:41:38;;;;;;;0.70;0.70;;;3.00;99.90;;;;;;5012456;28;20333;-72
2021/10/16 07:44:05;;;;;;;0.65;0.65;;;3.10;99.90;;;;;;5012374;28;20214;-73
2021/10/16 07:46:31;;;;;;;0.80;0.80;;;3.30;99.90;;;;;;5012309;28;20230;-72
2021/10/16 07:48:57;;;;;;;0.60;0.60;;;3.50;99.90;;;;;;5011485;28;20674;-70
2021/10/16 07:51:22;;;;;;;0.50;0.50;;;3.60;99.90;;;;;;5011508;28;20218;-72
2021/10/16 07:53:48;;;;;;;0.60;0.60;;;3.80;99.90;;;;;;4994289;28;20213;-72
2021/10/16 07:56:14;;;;;;;0.55;0.55;;;3.90;99.90;;;;;;5009017;28;20210;-71
2021/10/16 07:58:41;;;;;;;0.50;0.50;;;4.10;99.90;;;;;;5011319;28;20269;-71
2021/10/16 08:01:07;;;;;;;0.70;0.70;;;4.40;99.90;;;;;;5011707;28;20260;-72
2021/10/16 08:03:33;;;;;;;0.70;0.70;;;4.60;99.90;;;;;;5000236;28;20215;-71
2021/10/16 08:05:59;;;;;;;0.60;0.60;;;4.80;99.90;;;;;;5009999;28;20723;-71
2021/10/16 08:08:25;;;;;;;0.70;0.70;;;4.90;99.90;;;;;;5011564;28;20210;-71
2021/10/16 08:10:51;;;;;;;0.57;0.57;;;5.10;99.90;;;;;;5004704;28;20199;-72
2021/10/16 08:13:16;;;;;;;0.68;0.68;;;5.30;99.90;;;;;;5000191;28;20195;-73
2021/10/16 08:15:42;;;;;;;0.70;0.70;;;5.50;99.90;;;;;;5005022;28;20260;-72
2021/10/16 08:18:08;;;;;;;0.60;0.60;;;5.70;99.90;;;;;;5007094;28;20320;-73
2021/10/16 08:20:33;;;;;;;0.70;0.70;;;5.90;99.90;;;;;;5010155;28;20229;-72
2021/10/16 08:23:00;;;;;;;0.63;0.63;;;6.10;99.90;;;;;;5009935;28;20278;-72
2021/10/16 08:25:26;;;;;;;0.70;0.70;;;6.30;99.90;;;;;;5011018;28;20221;-70
2021/10/16 08:27:51;;;;;;;0.70;0.70;;;6.40;99.90;;;;;;5010554;28;20203;-71
2021/10/16 08:30:18;;;;;;;0.50;0.50;;;6.60;99.90;;;;;;5009521;28;20218;-71
2021/10/16 08:32:44;;;;;;;0.63;0.63;;;6.80;99.90;;;;;;4993957;28;20204;-71
2021/10/16 08:35:10;;;;;;;0.90;0.90;;;7.00;99.90;;;;;;5011304;28;20214;-71
2021/10/16 08:37:36;;;;;;;0.75;0.75;;;7.20;99.90;;;;;;5011321;28;20550;-70
2021/10/16 08:40:04;;;;;;;1.15;1.15;;;7.30;99.90;;;;;;5011134;28;20574;-71
2021/10/16 08:42:31;;;;;;;0.60;0.60;;;7.60;99.90;;;;;;5010554;28;20269;-70
2021/10/16 08:45:00;;;;;;;0.55;0.55;;;7.80;99.90;;;;;;5010135;28;20273;-71
2021/10/16 08:47:34;;;;;;;0.70;0.70;;;8.00;99.90;;;;;;5010936;28;20609;-72
2021/10/16 08:50:03;;;;;;;0.60;0.60;;;8.10;99.90;;;;;;4996695;28;20576;-71
2021/10/16 08:52:28;;;;;;;0.70;0.70;;;8.30;99.90;;;;;;5010177;28;20234;-72
2021/10/16 08:54:57;;;;;;;0.80;0.80;;;8.50;99.90;;;;;;5010188;28;20277;-71
2021/10/16 08:57:28;;;;;;;0.60;0.60;;;8.70;99.90;;;;;;5011700;28;20689;-71
2021/10/16 08:59:53;;;;;;;0.57;0.57;;;8.80;99.90;;;;;;5010991;28;20207;-72
2021/10/16 09:02:19;;;;;;;0.70;0.70;;;9.00;99.90;;;;;;5009993;28;20269;-71
2021/10/16 09:04:45;;;;;;;0.70;0.70;;;9.20;99.90;;;;;;5013860;28;20321;-71
2021/10/16 09:07:22;;;;;;;0.70;0.70;;;9.40;99.90;;;;;;5014426;28;20210;-72
2021/10/16 09:09:51;;;;;;;0.70;0.70;;;9.50;99.90;;;;;;4998133;28;20248;-72
2021/10/16 09:12:19;;;;;;;0.70;0.70;;;9.70;99.90;;;;;;4997832;28;20231;-71
2021/10/16 09:14:50;;;;;;;0.65;0.65;;;9.90;99.90;;;;;;5015336;28;20576;-71
2021/10/16 09:17:17;;;;;;;0.70;0.70;;;10.60;99.90;;;;;;5015632;28;20211;-71
2021/10/16 09:19:43;;;;;;;0.60;0.60;;;11.30;99.90;;;;;;5014863;28;20210;-71
2021/10/16 09:22:18;;;;;;;0.50;0.50;;;12.30;99.90;;;;;;5014876;28;20209;-70
2021/10/16 09:24:46;;;;;;;0.50;0.50;;;13.00;99.90;;;;;;5015095;28;20606;-70
2021/10/16 09:27:18;;;;;;;0.50;0.50;;;13.40;99.90;;;;;;5015005;28;20194;-70
2021/10/16 09:29:50;;;;;;;0.60;0.60;;;13.90;99.90;;;;;;5015009;28;20207;-70
2021/10/16 09:32:22;;;;;;;0.43;0.43;;;14.50;99.90;;;;;;5015232;28;20207;-72
2021/10/16 09:34:49;;;;;;;0.60;0.60;;;14.60;99.90;;;;;;5014776;28;20658;-71
2021/10/16 09:37:20;;;;;;;0.50;0.50;;;14.80;99.90;;;;;;5015011;28;20206;-70
2021/10/16 09:39:49;;;;;;;0.50;0.50;;;14.90;99.90;;;;;;5014702;28;20290;-71
2021/10/16 09:42:16;;;;;;;0.50;0.50;;;15.00;99.90;;;;;;5014486;28;20222;-72
2021/10/16 09:44:47;;;;;;;0.50;0.50;;;14.70;99.90;;;;;;5014332;28;20224;-74
2021/10/16 09:47:15;;;;;;;0.45;0.45;;;14.50;99.90;;;;;;4997332;28;20195;-71
2021/10/16 09:49:46;;;;;;;0.40;0.40;;;14.70;99.90;;;;;;5013766;28;20206;-72
2021/10/16 09:52:17;;;;;;;0.45;0.45;;;14.70;99.90;;;;;;5014433;28;20253;-72
2021/10/16 09:54:46;;;;;;;0.43;0.43;;;14.60;99.90;;;;;;5014361;28;20626;-71
2021/10/16 09:57:15;;;;;;;0.70;0.70;;;13.80;99.90;;;;;;5013348;28;20215;-72
2021/10/16 09:59:42;;;;;;;0.47;0.47;;;14.10;99.90;;;;;;4995887;28;20217;-70
2021/10/16 10:02:09;;;;;;;0.50;0.50;;;14.40;99.90;;;;;;5014637;28;20642;-71
2021/10/16 10:04:45;;;;;;;0.40;0.40;;;14.40;99.90;;;;;;5014012;28;20235;-70
2021/10/16 10:07:12;;;;;;;0.50;0.50;;;14.60;99.90;;;;;;5007811;28;20199;-71
2021/10/16 10:09:41;;;;;;;0.50;0.50;;;14.50;99.90;;;;;;5011643;28;20211;-72
2021/10/16 10:12:09;;;;;;;0.50;0.50;;;14.60;99.90;;;;;;5012934;28;20248;-70
2021/10/16 10:14:41;;;;;;;0.40;0.40;;;14.20;99.90;;;;;;5012486;28;20203;-72
2021/10/16 10:17:08;;;;;;;0.40;0.40;;;14.10;99.90;;;;;;5012557;28;20267;-72
2021/10/16 10:19:44;;;;;;;0.50;0.50;;;14.10;99.90;;;;;;5013027;28;20209;-71
2021/10/16 10:22:14;;;;;;;0.50;0.50;;;13.90;99.90;;;;;;5012609;28;20217;-72
2021/10/16 10:24:43;;;;;;;0.45;0.45;;;13.80;99.90;;;;;;5012499;28;20285;-72
2021/10/16 10:27:11;;;;;;;0.50;0.50;;;13.70;99.90;;;;;;5012348;28;20294;-73
2021/10/16 10:29:39;;;;;;;0.55;0.55;;;13.90;99.90;;;;;;5000996;28;20203;-72
2021/10/16 10:32:12;;;;;;;0.50;0.50;;;14.20;99.90;;;;;;5011286;28;20207;-73
2021/10/16 10:34:39;;;;;;;0.50;0.50;;;14.20;99.90;;;;;;5012285;28;20211;-72
2021/10/16 10:37:08;;;;;;;0.40;0.40;;;14.10;99.90;;;;;;5010925;28;20202;-71
2021/10/16 10:39:34;;;;;;;0.50;0.50;;;14.30;99.90;;;;;;5007391;28;20690;-70
2021/10/16 10:42:01;;;;;;;0.50;0.50;;;14.50;99.90;;;;;;5012291;28;20202;-71
2021/10/16 10:44:41;;;;;;;0.50;0.50;;;14.10;99.90;;;;;;5006979;28;20245;-71
2021/10/16 10:47:24;;;;;;;0.60;0.60;;;13.70;99.90;;;;;;5007414;28;20678;-71
2021/10/16 10:49:52;;;;;;;0.50;0.50;;;13.90;99.90;;;;;;5012145;28;20234;-69
2021/10/16 10:52:19;;;;;;;0.40;0.40;;;14.30;99.90;;;;;;5007101;28;20209;-71
2021/10/16 10:55:06;;;;;;;0.40;0.40;;;14.40;99.90;;;;;;5007193;28;20210;-71
2021/10/16 10:57:44;;;;;;;0.40;0.40;;;14.70;99.90;;;;;;5012036;28;20572;-71
2021/10/16 11:00:15;;;;;;;0.40;0.40;;;14.60;99.90;;;;;;5011879;28;20206;-71
2021/10/16 11:02:41;;;;;;;0.50;0.50;;;14.10;99.90;;;;;;5011485;28;20800;-71
2021/10/16 11:05:33;;;;;;;0.50;0.50;;;14.00;99.90;;;;;;5030230;28;20349;-71
2021/10/16 11:08:14;;;;;;;0.50;0.50;;;13.70;99.90;;;;;;5031494;28;20236;-71
2021/10/16 11:10:42;;;;;;;1.63;0.90;;;13.60;99.90;;;;;;5036269;28;20257;-71
2021/10/16 11:13:19;;;;;;;0.50;0.50;;;13.30;99.90;;;;;;5024227;28;20208;-71
2021/10/16 11:15:59;;;;;;;0.60;0.60;;;13.30;99.90;;;;;;5048505;28;20617;-71
2021/10/16 11:18:25;;;;;;;0.55;0.55;;;13.40;99.90;;;;;;5036817;28;20229;-71
2021/10/16 11:20:51;;;;;;;0.60;0.60;;;13.50;99.90;;;;;;5031260;28;20580;-71
2021/10/16 11:23:23;;;;;;;0.57;0.57;;;13.50;99.90;;;;;;5039160;28;20205;-71
2021/10/16 11:26:08;;;;;;;0.50;0.50;;;13.60;99.90;;;;;;5021738;28;20214;-71
2021/10/16 11:28:37;;;;;;;0.50;0.50;;;13.60;99.90;;;;;;5012998;28;20198;-71
2021/10/16 11:31:04;;;;;;;0.50;0.50;;;13.50;99.90;;;;;;5041468;28;20602;-71
2021/10/16 11:33:36;;;;;;;0.47;0.47;;;13.80;99.90;;;;;;5047781;28;20296;-71
2021/10/16 11:36:01;;;;;;;0.50;0.50;;;13.70;99.30;;;;;;5017602;28;20240;-70
2021/10/16 11:38:30;;;;;;;0.82;0.82;;;13.40;99.90;;;;;;5029098;28;20209;-70
2021/10/16 11:40:58;;;;;;;0.60;0.60;;;13.40;99.60;;;;;;5047508;28;20206;-71
2021/10/16 11:43:26;;;;;;;0.45;0.45;;;13.20;99.50;;;;;;5046503;28;20221;-71
2021/10/16 11:45:54;;;;;;;0.50;0.50;;;13.10;99.90;;;;;;5045309;28;20213;-72
2021/10/16 11:48:23;;;;;;;0.75;0.70;;;13.40;99.90;;;;;;5047297;28;20267;-73
2021/10/16 11:50:55;;;;;;;0.50;0.50;;;13.40;99.00;;;;;;5044749;28;20198;-71
2021/10/16 11:53:25;;;;;;;0.50;0.50;;;13.40;99.90;;;;;;5016055;28;20209;-71
2021/10/16 11:56:00;;;;;;;0.50;0.50;;;13.40;98.20;;;;;;5046336;28;20218;-72
2021/10/16 11:58:28;;;;;;;0.50;0.50;;;13.20;99.90;;;;;;5044805;28;20204;-72
2021/10/16 12:01:15;;;;;;;0.50;0.50;;;13.10;98.20;;;;;;5013913;28;21167;-72
2021/10/16 12:03:43;;;;;;;0.50;0.50;;;13.20;99.70;;;;;;5048015;28;20213;-73
2021/10/16 12:06:12;;;;;;;0.50;0.50;;;13.40;97.30;;;;;;5045457;28;20226;-72
2021/10/16 12:08:51;;;;;;;0.60;0.60;;;13.40;98.70;;;;;;5047331;28;20211;-71
2021/10/16 12:11:31;;;;;;;0.50;0.50;;;13.30;97.40;;;;;;5047332;28;20209;-72
2021/10/16 12:13:59;;;;;;;0.60;0.60;;;13.00;98.70;;;;;;5047522;28;20201;-72
2021/10/16 12:16:40;;;;;;;0.60;0.60;;;12.80;99.20;;;;;;5028326;28;20231;-73
2021/10/16 12:19:20;;;;;;;0.50;0.50;;;12.70;99.90;;;;;;5016749;28;20209;-74
2021/10/16 12:21:51;;;;;;;0.50;0.50;;;12.80;99.80;;;;;;5047517;28;20205;-74
2021/10/16 12:24:17;;;;;;;0.40;0.40;;;12.60;99.90;;;;;;5046226;28;20251;-74
2021/10/16 12:26:45;;;;;;;0.60;0.60;;;12.50;99.90;;;;;;5047198;28;20611;-74
2021/10/16 12:29:28;;;;;;;0.50;0.50;;;12.30;99.90;;;;;;5046206;28;20198;-75
2021/10/16 12:31:54;;;;;;;0.60;0.60;;;12.10;99.90;;;;;;5045961;28;20217;-74
2021/10/16 12:34:24;;;;;;;0.60;0.60;;;11.90;99.90;;;;;;5047068;28;20203;-74
2021/10/16 12:37:12;;;;;;;0.50;0.50;;;11.80;99.90;;;;;;5020477;28;20704;-74
2021/10/16 12:39:41;;;;;;;0.60;0.60;;;11.70;99.90;;;;;;5032015;28;20588;-72
2021/10/16 12:42:17;;;;;;;0.60;0.60;;;11.70;99.90;;;;;;5047529;28;20598;-71
2021/10/16 12:44:51;;;;;;;0.50;0.50;;;11.70;99.90;;;;;;5019802;28;20314;-71
2021/10/16 12:47:28;;;;;;;0.50;0.50;;;11.70;99.90;;;;;;5050973;28;20281;-71
2021/10/16 12:49:57;;;;;;;0.50;0.50;;;11.70;99.90;;;;;;5049731;28;20248;-71
2021/10/16 12:52:24;;;;;;;0.50;0.50;;;11.60;99.90;;;;;;5047660;28;20209;-72
2021/10/16 12:54:50;;;;;;;0.60;0.60;;;11.40;99.90;;;;;;5018627;28;20234;-71